Time;durP1;ratioP1;P1;durP2;ratioP2;P2;SDS_P1;SDS_P2;PMS_P1;PMS_P2;Temp;Humidity;BMP_temperature;BMP_pressure;BME280_temperature;BME280_humidity;BME280_pressure;Samples;Min_cycle;Max_cycle;Signal;HPM_P1;HPM_P2
2021/01/05 00:00:09;;;;;;;15.60;7.15;;;16.30;61.20;;;;;;4990404;28;20045;-63
2021/01/05 00:02:34;;;;;;;15.10;7.75;;;16.30;61.40;;;;;;4981807;28;20019;-62
2021/01/05 00:05:00;;;;;;;14.35;7.20;;;16.30;61.40;;;;;;4977418;28;20105;-64
2021/01/05 00:07:25;;;;;;;15.13;7.32;;;16.30;61.40;;;;;;4977128;28;20023;-63
2021/01/05 00:09:51;;;;;;;15.80;7.20;;;16.30;61.50;;;;;;4986675;28;20425;-62
2021/01/05 00:12:17;;;;;;;15.10;7.10;;;16.20;61.50;;;;;;4990526;28;20026;-62
2021/01/05 00:14:44;;;;;;;12.70;7.18;;;16.30;61.50;;;;;;4989954;28;20030;-63
2021/01/05 00:17:12;;;;;;;13.52;6.80;;;16.20;61.50;;;;;;4983760;28;20110;-63
2021/01/05 00:19:37;;;;;;;15.50;6.70;;;16.20;61.60;;;;;;4988674;28;20030;-64
2021/01/05 00:22:04;;;;;;;12.93;6.35;;;16.20;61.50;;;;;;4991839;28;20038;-63
2021/01/05 00:24:30;;;;;;;11.63;6.63;;;16.20;61.50;;;;;;4991409;28;20033;-64
2021/01/05 00:26:55;;;;;;;11.55;6.45;;;16.20;61.30;;;;;;4979895;28;20026;-63
2021/01/05 00:29:21;;;;;;;12.98;7.03;;;16.20;61.40;;;;;;4978375;28;20114;-64
2021/01/05 00:31:47;;;;;;;13.30;7.00;;;16.20;61.30;;;;;;4978789;28;20054;-64
2021/01/05 00:34:13;;;;;;;10.98;6.30;;;16.10;61.40;;;;;;5003064;28;20033;-63
2021/01/05 00:36:39;;;;;;;10.75;5.85;;;16.10;61.40;;;;;;5009689;28;20029;-62
2021/01/05 00:39:06;;;;;;;12.77;6.95;;;16.10;61.20;;;;;;4990186;28;20026;-61
2021/01/05 00:41:32;;;;;;;13.52;6.53;;;16.10;61.00;;;;;;4983618;28;20034;-64
2021/01/05 00:43:57;;;;;;;11.45;5.50;;;16.10;60.70;;;;;;5004064;28;20030;-63
2021/01/05 00:46:23;;;;;;;10.32;5.50;;;16.10;60.90;;;;;;5000450;28;20030;-64
2021/01/05 00:48:49;;;;;;;11.68;5.68;;;16.00;60.70;;;;;;4989134;28;20034;-64
2021/01/05 00:51:15;;;;;;;11.55;5.90;;;16.00;60.80;;;;;;4982640;28;20026;-63
2021/01/05 00:53:41;;;;;;;12.77;5.82;;;16.00;60.90;;;;;;4995564;28;20031;-64
2021/01/05 00:56:06;;;;;;;12.80;6.38;;;16.00;61.00;;;;;;4983459;28;20030;-63
2021/01/05 00:58:33;;;;;;;11.68;5.70;;;16.00;60.90;;;;;;4971689;28;20019;-64
2021/01/05 01:00:58;;;;;;;9.70;5.05;;;16.00;60.80;;;;;;4976039;28;20088;-63
2021/01/05 01:03:24;;;;;;;10.18;5.78;;;15.90;61.00;;;;;;4977294;28;20039;-64
2021/01/05 01:05:50;;;;;;;10.65;5.25;;;15.90;61.60;;;;;;4977193;28;20455;-62
2021/01/05 01:08:18;;;;;;;10.23;5.28;;;15.90;61.00;;;;;;4986749;28;20030;-64
2021/01/05 01:10:45;;;;;;;9.73;5.05;;;15.90;60.90;;;;;;4984493;28;20034;-65
2021/01/05 01:13:11;;;;;;;10.45;5.22;;;15.90;60.70;;;;;;4976898;28;20064;-62
2021/01/05 01:15:37;;;;;;;10.30;5.38;;;15.90;60.80;;;;;;4989713;28;20072;-65
2021/01/05 01:18:04;;;;;;;8.88;5.10;;;15.90;60.90;;;;;;4988275;28;20023;-62
2021/01/05 01:20:34;;;;;;;8.90;4.75;;;15.90;60.80;;;;;;4982472;28;20485;-64
2021/01/05 01:23:00;;;;;;;9.30;5.35;;;15.90;60.80;;;;;;4972756;28;20129;-63
2021/01/05 01:25:25;;;;;;;9.23;5.22;;;15.80;60.80;;;;;;4985285;28;20134;-61
2021/01/05 01:27:52;;;;;;;9.43;5.03;;;15.80;60.80;;;;;;4982379;28;20066;-63
2021/01/05 01:30:18;;;;;;;8.15;4.63;;;15.80;60.80;;;;;;4977235;28;20070;-64
2021/01/05 01:32:45;;;;;;;10.65;4.80;;;15.80;60.60;;;;;;4983381;28;20026;-62
2021/01/05 01:35:11;;;;;;;8.88;4.50;;;15.80;60.90;;;;;;4988120;28;20426;-63
2021/01/05 01:37:37;;;;;;;9.50;4.95;;;15.80;60.80;;;;;;4976586;28;20535;-61
2021/01/05 01:40:05;;;;;;;9.02;4.63;;;15.80;60.70;;;;;;4975746;28;20142;-62
2021/01/05 01:42:31;;;;;;;7.70;4.20;;;15.80;60.70;;;;;;4987668;28;20026;-64
2021/01/05 01:44:56;;;;;;;9.00;4.68;;;15.80;60.50;;;;;;4993393;28;20080;-63
2021/01/05 01:47:30;;;;;;;8.95;4.50;;;15.80;60.50;;;;;;4994115;28;20030;-64
2021/01/05 01:50:00;;;;;;;9.00;4.90;;;15.80;60.50;;;;;;4991697;28;20041;-64
2021/01/05 01:52:57;;;;;;;7.40;4.10;;;15.70;60.60;;;;;;4986662;28;20422;-63
2021/01/05 01:55:46;;;;;;;7.18;3.90;;;15.70;60.40;;;;;;4995471;28;20034;-61
2021/01/05 01:58:35;;;;;;;7.97;4.15;;;15.70;60.50;;;;;;4980743;28;20551;-64
2021/01/05 02:01:25;;;;;;;9.53;4.27;;;15.70;60.50;;;;;;4988051;28;20038;-61
2021/01/05 02:04:00;;;;;;;7.65;4.38;;;15.70;60.50;;;;;;4974107;28;20274;-63
2021/01/05 02:06:49;;;;;;;8.93;4.82;;;15.70;60.60;;;;;;4974390;28;20030;-63
2021/01/05 02:09:32;;;;;;;8.73;4.07;;;15.60;60.70;;;;;;4975336;28;20571;-63
2021/01/05 02:11:58;;;;;;;8.20;4.25;;;15.60;60.60;;;;;;4974159;28;20055;-62
2021/01/05 02:14:42;;;;;;;9.73;4.75;;;15.60;60.70;;;;;;4974388;28;20060;-63
2021/01/05 02:17:43;;;;;;;8.60;4.35;;;15.60;60.50;;;;;;4974853;28;20438;-63
2021/01/05 02:20:14;;;;;;;7.65;3.63;;;15.60;60.50;;;;;;4963535;28;20129;-62
2021/01/05 02:23:23;;;;;;;9.38;4.38;;;15.60;60.50;;;;;;4974170;28;20173;-62
2021/01/05 02:26:00;;;;;;;8.83;4.20;;;15.50;60.60;;;;;;4972866;28;20130;-60
2021/01/05 02:28:49;;;;;;;8.18;4.35;;;15.60;60.50;;;;;;4985722;28;20030;-63
2021/01/05 02:31:46;;;;;;;8.02;4.35;;;15.60;60.40;;;;;;4990890;28;20069;-64
2021/01/05 02:34:45;;;;;;;10.63;3.95;;;15.60;60.30;;;;;;4992267;28;20028;-63
2021/01/05 02:37:56;;;;;;;8.47;4.63;;;15.50;60.20;;;;;;4987529;28;20491;-64
2021/01/05 02:40:40;;;;;;;8.77;4.50;;;15.50;60.30;;;;;;4960930;28;20687;-63
2021/01/05 02:43:35;;;;;;;8.88;4.18;;;15.50;60.20;;;;;;4980538;28;20030;-62
2021/01/05 02:46:24;;;;;;;8.50;4.50;;;15.50;60.20;;;;;;4988558;28;20030;-62
2021/01/05 02:49:18;;;;;;;8.68;4.07;;;15.50;60.10;;;;;;4991476;28;20038;-63
2021/01/05 02:52:13;;;;;;;7.43;3.90;;;15.50;60.20;;;;;;4992790;28;20514;-64
2021/01/05 02:54:54;;;;;;;7.35;4.00;;;15.50;60.20;;;;;;4991289;28;20174;-63
2021/01/05 02:57:35;;;;;;;8.85;4.20;;;15.40;60.30;;;;;;4989957;28;20030;-61
2021/01/05 03:03:42;;;;;;;7.72;3.85;;;15.40;60.30;;;;;;4986528;28;20482;-61
2021/01/05 03:06:19;;;;;;;7.63;3.65;;;15.40;60.20;;;;;;4991448;28;20027;-62
2021/01/05 03:09:05;;;;;;;10.50;4.18;;;15.40;60.30;;;;;;4991834;28;20046;-61
2021/01/05 03:11:47;;;;;;;9.15;3.83;;;15.40;60.20;;;;;;4993135;28;20575;-61
2021/01/05 03:14:30;;;;;;;8.50;4.15;;;15.40;60.40;;;;;;4991102;28;20555;-63
2021/01/05 03:17:03;;;;;;;8.07;3.97;;;15.40;60.30;;;;;;4987663;28;20093;-61
2021/01/05 03:20:05;;;;;;;8.38;3.47;;;15.30;60.30;;;;;;4992403;28;20575;-63
2021/01/05 03:22:35;;;;;;;9.70;3.95;;;15.30;60.20;;;;;;4985134;28;20034;-62
2021/01/05 03:25:03;;;;;;;7.20;3.63;;;15.30;60.30;;;;;;4987980;28;20046;-62
2021/01/05 03:27:30;;;;;;;8.50;3.92;;;15.30;60.30;;;;;;4981503;28;20027;-62
2021/01/05 03:30:14;;;;;;;10.10;4.20;;;15.30;60.20;;;;;;4994610;28;20037;-62
2021/01/05 03:32:40;;;;;;;8.55;3.63;;;15.30;60.30;;;;;;4977235;28;20058;-63
2021/01/05 03:35:06;;;;;;;7.60;3.58;;;15.30;60.30;;;;;;4972279;28;20058;-59
2021/01/05 03:37:31;;;;;;;8.77;4.03;;;15.30;60.20;;;;;;4971285;28;20484;-59
2021/01/05 03:39:57;;;;;;;7.57;4.00;;;15.20;60.10;;;;;;4971887;28;20077;-60
2021/01/05 03:42:22;;;;;;;7.95;4.18;;;15.20;60.10;;;;;;4970899;28;20027;-61
2021/01/05 03:44:48;;;;;;;7.57;3.70;;;15.30;60.50;;;;;;4971285;28;20117;-59
2021/01/05 03:47:13;;;;;;;8.75;4.10;;;15.20;60.30;;;;;;4974700;28;20484;-61
2021/01/05 03:49:39;;;;;;;8.25;3.85;;;15.20;60.20;;;;;;4991358;28;20535;-62
2021/01/05 03:52:05;;;;;;;7.32;3.80;;;15.20;60.30;;;;;;4990682;28;20023;-62
2021/01/05 03:54:30;;;;;;;8.82;4.20;;;15.20;60.20;;;;;;4988980;28;20577;-62
2021/01/05 03:56:55;;;;;;;7.18;3.88;;;15.20;60.20;;;;;;4990388;28;20034;-63
2021/01/05 03:59:21;;;;;;;6.57;3.63;;;15.20;60.20;;;;;;4989732;28;20046;-61
2021/01/05 04:01:51;;;;;;;9.10;3.83;;;15.20;60.30;;;;;;4989994;28;20510;-62
2021/01/05 04:04:17;;;;;;;7.97;3.97;;;15.20;60.20;;;;;;4980294;28;20031;-61
2021/01/05 04:06:42;;;;;;;8.55;4.18;;;15.20;60.30;;;;;;5000051;28;20027;-62
2021/01/05 04:09:08;;;;;;;8.95;3.90;;;15.20;60.20;;;;;;4976597;28;20035;-63
2021/01/05 04:11:33;;;;;;;7.30;4.15;;;15.10;60.30;;;;;;4978041;28;20117;-62
2021/01/05 04:13:59;;;;;;;8.07;3.70;;;15.10;60.20;;;;;;4989699;28;20073;-61
2021/01/05 04:16:24;;;;;;;7.07;3.63;;;15.10;60.30;;;;;;4988688;28;20403;-62
2021/01/05 04:18:50;;;;;;;8.45;3.50;;;15.10;60.20;;;;;;4980566;28;20030;-61
2021/01/05 04:21:15;;;;;;;7.45;3.58;;;15.10;60.20;;;;;;4983903;28;20412;-61
2021/01/05 04:23:41;;;;;;;7.40;3.88;;;15.10;60.20;;;;;;4973637;28;20042;-62
2021/01/05 04:26:08;;;;;;;9.38;3.90;;;15.10;60.30;;;;;;4984025;28;20145;-62
2021/01/05 04:28:34;;;;;;;7.10;3.78;;;15.10;60.30;;;;;;4989486;28;20113;-62
2021/01/05 04:30:59;;;;;;;7.30;3.67;;;15.10;60.30;;;;;;4983774;28;20105;-61
2021/01/05 04:33:25;;;;;;;7.25;4.00;;;15.00;60.30;;;;;;4983798;28;20165;-62
2021/01/05 04:35:50;;;;;;;7.85;3.58;;;15.00;60.20;;;;;;4983538;28;20079;-61
2021/01/05 04:38:16;;;;;;;7.03;3.75;;;15.00;60.20;;;;;;4974858;28;20133;-61
2021/01/05 04:40:47;;;;;;;7.57;3.45;;;15.00;60.40;;;;;;4971633;28;20495;-61
2021/01/05 04:43:34;;;;;;;7.90;3.75;;;15.00;60.20;;;;;;4974135;28;20033;-61
2021/01/05 04:46:26;;;;;;;7.30;3.50;;;15.00;60.10;;;;;;4973051;28;20146;-61
2021/01/05 04:48:57;;;;;;;8.23;4.15;;;15.00;60.00;;;;;;4985584;28;20495;-62
2021/01/05 04:52:00;;;;;;;7.22;3.90;;;15.00;59.70;;;;;;4986422;28;20031;-60
2021/01/05 04:54:30;;;;;;;7.55;3.80;;;15.10;59.50;;;;;;4977861;28;20038;-61
2021/01/05 04:57:05;;;;;;;6.33;3.47;;;15.10;59.50;;;;;;4970353;28;20169;-61
2021/01/05 04:59:39;;;;;;;8.13;3.80;;;15.10;59.30;;;;;;4973651;28;20126;-63
2021/01/05 05:02:16;;;;;;;6.72;3.30;;;15.10;59.10;;;;;;4988409;28;20014;-62
2021/01/05 05:04:57;;;;;;;6.75;3.60;;;15.00;59.00;;;;;;4973635;28;20034;-60
2021/01/05 05:07:25;;;;;;;6.03;3.10;;;15.10;59.10;;;;;;4990144;28;20061;-63
2021/01/05 05:09:55;;;;;;;10.18;5.30;;;15.10;58.90;;;;;;4988840;28;20035;-62
2021/01/05 05:13:07;;;;;;;10.05;5.35;;;15.10;59.10;;;;;;4993382;28;20034;-63
2021/01/05 05:15:47;;;;;;;204.52;185.55;;;15.20;58.90;;;;;;4971943;28;20053;-62
2021/01/05 05:18:53;;;;;;;70.25;63.63;;;15.40;58.70;;;;;;4977634;28;20102;-62
2021/01/05 05:21:34;;;;;;;38.05;34.20;;;15.50;58.50;;;;;;4980734;28;20262;-61
2021/01/05 05:24:12;;;;;;;28.77;26.05;;;15.60;58.30;;;;;;5003465;28;20042;-61
2021/01/05 05:26:46;;;;;;;26.63;23.98;;;15.80;58.10;;;;;;4984327;28;20077;-68
2021/01/05 05:29:35;;;;;;;23.88;21.13;;;15.80;57.80;;;;;;4977816;28;20109;-68
2021/01/05 05:32:03;;;;;;;21.27;19.00;;;15.90;57.70;;;;;;4984782;28;20026;-65
2021/01/05 05:34:41;;;;;;;21.05;18.35;;;16.10;57.50;;;;;;4986989;28;20034;-66
2021/01/05 05:37:15;;;;;;;19.33;17.33;;;16.10;57.20;;;;;;4981292;28;20039;-69
2021/01/05 05:39:57;;;;;;;19.23;16.85;;;16.30;57.00;;;;;;4978634;28;20018;-67
2021/01/05 05:42:41;;;;;;;18.15;16.00;;;16.40;57.10;;;;;;4994448;28;20031;-66
2021/01/05 05:45:14;;;;;;;18.15;14.73;;;16.40;56.90;;;;;;4972773;28;20061;-65
2021/01/05 05:47:48;;;;;;;18.10;14.52;;;16.50;56.90;;;;;;4974645;28;20034;-70
2021/01/05 05:50:22;;;;;;;14.18;12.57;;;16.50;56.70;;;;;;4978269;28;20058;-68
2021/01/05 05:52:58;;;;;;;16.38;13.23;;;16.60;56.60;;;;;;4988373;28;20030;-68
2021/01/05 05:55:55;;;;;;;18.05;12.30;;;16.70;56.40;;;;;;4986145;28;20089;-65
2021/01/05 05:58:28;;;;;;;22.85;11.73;;;16.80;56.50;;;;;;4987457;28;20487;-65
2021/01/05 06:00:57;;;;;;;22.88;12.27;;;16.90;56.20;;;;;;4981178;28;20515;-69
2021/01/05 06:03:24;;;;;;;26.40;11.60;;;17.10;56.30;;;;;;4985604;28;20075;-66
2021/01/05 06:05:50;;;;;;;16.35;10.75;;;17.10;56.70;;;;;;4992624;28;20030;-68
2021/01/05 06:08:17;;;;;;;19.13;10.93;;;17.10;56.70;;;;;;4987801;28;20092;-66
2021/01/05 06:10:43;;;;;;;34.97;11.30;;;17.20;56.90;;;;;;4986841;28;20433;-67
2021/01/05 06:13:09;;;;;;;20.85;10.40;;;17.20;57.10;;;;;;4986671;28;20192;-66
2021/01/05 06:15:35;;;;;;;14.82;9.27;;;17.30;56.80;;;;;;4983575;28;20102;-69
2021/01/05 06:18:02;;;;;;;15.73;9.60;;;17.30;56.80;;;;;;4971662;28;20023;-69
2021/01/05 06:20:28;;;;;;;12.50;8.43;;;17.30;57.30;;;;;;4998728;28;20761;-66
2021/01/05 06:22:54;;;;;;;13.07;8.13;;;17.30;57.20;;;;;;4999979;28;20037;-67
2021/01/05 06:25:20;;;;;;;11.48;8.48;;;17.40;56.80;;;;;;5003243;28;20030;-68
2021/01/05 06:27:46;;;;;;;15.23;8.18;;;17.50;56.10;;;;;;4988703;28;20038;-64
2021/01/05 06:30:12;;;;;;;12.65;8.00;;;17.60;56.20;;;;;;4987687;28;20061;-67
2021/01/05 06:32:38;;;;;;;14.82;7.65;;;17.70;55.90;;;;;;4979467;28;20063;-67
2021/01/05 06:35:04;;;;;;;12.40;8.02;;;17.70;56.00;;;;;;4984660;28;20074;-67
2021/01/05 06:37:29;;;;;;;11.90;7.55;;;17.70;56.10;;;;;;4981249;28;20033;-67
2021/01/05 06:39:55;;;;;;;13.85;8.25;;;17.60;56.30;;;;;;4987467;28;20026;-65
2021/01/05 06:42:21;;;;;;;11.93;7.20;;;17.60;56.30;;;;;;4994323;28;20026;-67
2021/01/05 06:44:46;;;;;;;12.05;7.10;;;17.60;56.50;;;;;;4986880;28;20490;-67
2021/01/05 06:47:12;;;;;;;11.13;6.95;;;17.60;56.70;;;;;;4983721;28;20030;-68
2021/01/05 06:49:38;;;;;;;9.63;6.53;;;17.60;56.80;;;;;;4984604;28;20031;-67
2021/01/05 06:52:04;;;;;;;9.68;6.20;;;17.60;56.80;;;;;;4995263;28;20036;-67
2021/01/05 06:54:30;;;;;;;9.45;5.97;;;17.60;56.80;;;;;;4984324;28;20034;-68
2021/01/05 06:56:57;;;;;;;13.20;6.25;;;17.60;56.90;;;;;;4971215;28;20058;-66
2021/01/05 06:59:24;;;;;;;10.77;6.05;;;17.60;56.90;;;;;;4979807;28;21042;-68
2021/01/05 07:01:58;;;;;;;11.43;5.80;;;17.60;56.00;;;;;;4980315;28;20045;-66
2021/01/05 07:04:24;;;;;;;11.63;5.63;;;17.60;56.50;;;;;;4971700;28;20058;-67
2021/01/05 07:06:50;;;;;;;9.45;5.88;;;17.60;56.70;;;;;;4973783;28;20041;-68
2021/01/05 07:09:17;;;;;;;8.98;5.32;;;17.60;57.30;;;;;;4981053;28;20027;-69
2021/01/05 07:11:44;;;;;;;11.27;5.80;;;17.60;57.20;;;;;;4988334;28;20133;-66
2021/01/05 07:14:11;;;;;;;9.60;5.30;;;17.70;57.20;;;;;;5006443;28;20026;-67
2021/01/05 07:16:37;;;;;;;9.77;5.50;;;17.70;57.00;;;;;;4975825;28;20031;-67
2021/01/05 07:19:02;;;;;;;11.75;5.35;;;17.70;56.80;;;;;;4981563;28;20086;-68
2021/01/05 07:21:28;;;;;;;11.68;5.22;;;17.80;56.80;;;;;;4980921;28;20037;-66
2021/01/05 07:23:53;;;;;;;8.23;4.43;;;17.80;56.70;;;;;;4987803;28;20034;-66
2021/01/05 07:26:19;;;;;;;9.95;5.22;;;17.80;56.70;;;;;;4966546;28;20672;-67
2021/01/05 07:28:44;;;;;;;9.95;4.82;;;17.80;57.00;;;;;;4974526;28;20386;-67
2021/01/05 07:31:10;;;;;;;8.18;4.95;;;17.80;57.00;;;;;;4985279;28;20037;-68
2021/01/05 07:33:37;;;;;;;7.75;4.78;;;17.80;57.00;;;;;;4975263;28;20039;-67
2021/01/05 07:36:05;;;;;;;8.98;4.85;;;17.80;57.00;;;;;;4973972;28;20034;-69
2021/01/05 07:38:31;;;;;;;12.82;5.20;;;17.80;57.00;;;;;;4991014;28;20443;-65
2021/01/05 07:40:57;;;;;;;8.13;4.43;;;17.70;57.20;;;;;;4982298;28;20042;-68
2021/01/05 07:43:22;;;;;;;7.88;4.55;;;17.80;57.80;;;;;;4979394;28;20038;-66
2021/01/05 07:45:48;;;;;;;11.73;4.57;;;17.70;57.50;;;;;;4987171;28;20038;-67
2021/01/05 07:48:13;;;;;;;8.73;4.38;;;17.60;57.70;;;;;;4988244;28;20095;-67
2021/01/05 07:50:39;;;;;;;10.55;4.25;;;17.50;57.70;;;;;;4983023;28;20078;-66
2021/01/05 07:53:05;;;;;;;12.25;4.82;;;17.50;57.90;;;;;;4990573;28;20426;-67
2021/01/05 07:55:32;;;;;;;12.95;4.70;;;17.50;58.10;;;;;;4987005;28;20030;-67
2021/01/05 07:57:58;;;;;;;8.43;4.07;;;17.50;58.10;;;;;;4999769;28;20872;-68
2021/01/05 08:00:26;;;;;;;10.27;4.97;;;17.40;57.90;;;;;;4983103;28;20037;-66
2021/01/05 08:02:53;;;;;;;8.60;4.35;;;17.40;58.00;;;;;;4985228;28;20494;-67
2021/01/05 08:05:21;;;;;;;9.40;4.20;;;17.40;57.90;;;;;;4984892;28;20042;-67
2021/01/05 08:07:47;;;;;;;9.68;4.25;;;17.40;57.80;;;;;;4976939;28;20027;-67
2021/01/05 08:10:19;;;;;;;8.65;4.90;;;17.40;58.40;;;;;;4985003;28;20037;-67
2021/01/05 08:12:45;;;;;;;;;;;17.40;57.60;;;;;;4986341;28;20065;-67
2021/01/05 08:15:20;;;;;;;8.27;3.88;;;17.40;58.00;;;;;;4996589;28;19945;-67
2021/01/05 08:17:45;;;;;;;11.30;4.90;;;17.40;57.80;;;;;;4964051;28;20077;-67
2021/01/05 08:20:12;;;;;;;10.98;5.30;;;17.40;58.80;;;;;;4979185;28;20590;-68
2021/01/05 08:22:37;;;;;;;10.90;5.28;;;17.40;59.50;;;;;;4972273;28;20034;-66
2021/01/05 08:25:03;;;;;;;9.90;4.70;;;17.40;58.60;;;;;;4978734;28;20034;-64
2021/01/05 08:27:29;;;;;;;8.82;4.53;;;17.40;58.60;;;;;;4973963;28;20116;-69
2021/01/05 08:29:54;;;;;;;10.25;4.75;;;17.40;58.70;;;;;;4981283;28;20077;-64
2021/01/05 08:32:23;;;;;;;12.27;5.13;;;17.40;58.70;;;;;;4976854;28;20038;-69
2021/01/05 08:34:49;;;;;;;8.77;4.55;;;17.50;58.60;;;;;;4993324;28;20513;-67
2021/01/05 08:37:14;;;;;;;10.60;4.88;;;17.60;58.50;;;;;;4974809;28;20030;-67
2021/01/05 08:39:41;;;;;;;9.85;4.10;;;17.70;57.90;;;;;;4983783;28;20019;-67
2021/01/05 08:42:07;;;;;;;14.52;8.50;;;17.60;57.70;;;;;;4974876;28;20031;-67
2021/01/05 08:44:33;;;;;;;18.05;8.52;;;17.80;57.70;;;;;;4992444;28;20094;-68
2021/01/05 08:47:00;;;;;;;15.95;7.88;;;17.80;57.30;;;;;;4982879;28;20038;-67
2021/01/05 08:49:28;;;;;;;16.58;6.93;;;17.70;57.20;;;;;;4974392;28;20483;-68
2021/01/05 08:51:54;;;;;;;18.92;6.50;;;17.50;57.00;;;;;;4970677;28;20038;-68
2021/01/05 08:54:20;;;;;;;11.57;6.10;;;17.50;57.70;;;;;;4968772;28;20046;-67
2021/01/05 08:56:50;;;;;;;34.10;21.52;;;17.50;57.90;;;;;;4982385;28;20038;-68
2021/01/05 08:59:16;;;;;;;55.20;39.80;;;17.50;57.70;;;;;;4982003;28;20030;-68
2021/01/05 09:01:41;;;;;;;36.72;26.77;;;17.50;57.90;;;;;;4983265;28;20053;-70
2021/01/05 09:04:07;;;;;;;24.92;15.40;;;17.50;58.30;;;;;;4979386;28;20106;-69
2021/01/05 09:06:33;;;;;;;23.65;14.23;;;17.40;58.60;;;;;;4964969;28;20082;-69
2021/01/05 09:08:58;;;;;;;19.70;13.18;;;17.50;59.10;;;;;;4989430;28;20084;-68
2021/01/05 09:11:26;;;;;;;20.60;12.63;;;17.50;59.30;;;;;;4997347;28;20081;-69
2021/01/05 09:13:52;;;;;;;19.48;13.10;;;17.40;59.00;;;;;;4984636;28;20042;-68
2021/01/05 09:16:32;;;;;;;20.90;11.75;;;17.50;59.10;;;;;;4984768;28;20403;-68
2021/01/05 09:18:59;;;;;;;17.73;11.57;;;17.50;59.20;;;;;;4980546;28;20029;-69
2021/01/05 09:21:28;;;;;;;17.48;10.93;;;17.50;59.00;;;;;;4964174;28;20122;-68
2021/01/05 09:23:58;;;;;;;15.80;10.30;;;17.50;59.50;;;;;;4978754;28;20547;-69
2021/01/05 09:26:30;;;;;;;17.15;10.65;;;17.50;59.70;;;;;;4976599;28;20098;-69
2021/01/05 09:28:55;;;;;;;18.65;11.20;;;17.50;59.60;;;;;;4992979;28;20026;-68
2021/01/05 09:31:21;;;;;;;17.83;10.73;;;17.50;59.90;;;;;;4988620;28;20041;-69
2021/01/05 09:33:47;;;;;;;15.70;9.95;;;17.50;59.90;;;;;;4982149;28;20031;-67
2021/01/05 09:36:14;;;;;;;15.68;10.10;;;17.60;60.10;;;;;;4970878;28;20022;-68
2021/01/05 09:38:41;;;;;;;16.42;10.07;;;17.60;60.80;;;;;;4988721;28;20652;-67
2021/01/05 09:41:17;;;;;;;15.48;9.95;;;17.60;60.90;;;;;;4991213;28;20494;-69
2021/01/05 09:43:43;;;;;;;16.98;10.48;;;17.60;61.00;;;;;;4984070;28;20125;-67
2021/01/05 09:46:11;;;;;;;15.13;9.93;;;17.60;61.00;;;;;;4993120;28;20122;-69
2021/01/05 09:48:36;;;;;;;15.23;9.65;;;17.60;61.00;;;;;;4983525;28;523345;-69
2021/01/05 09:51:02;;;;;;;16.48;9.65;;;17.60;61.20;;;;;;4985526;28;20030;-68
2021/01/05 09:53:27;;;;;;;14.27;9.82;;;17.60;61.60;;;;;;4978460;28;20059;-67
2021/01/05 09:55:53;;;;;;;17.00;10.25;;;17.60;61.40;;;;;;4983579;28;20034;-69
2021/01/05 09:58:18;;;;;;;14.27;8.45;;;17.70;61.70;;;;;;4978863;28;20034;-69
2021/01/05 10:00:44;;;;;;;21.52;11.23;;;17.80;60.50;;;;;;4985154;28;20077;-68
2021/01/05 10:03:09;;;;;;;75.82;39.65;;;17.80;60.90;;;;;;4991554;28;20414;-68
2021/01/05 10:05:35;;;;;;;297.60;166.27;;;17.90;59.80;;;;;;4978167;28;20026;-68
2021/01/05 10:08:01;;;;;;;422.45;248.57;;;17.80;59.60;;;;;;4976523;28;20086;-68
2021/01/05 10:10:27;;;;;;;401.45;239.48;;;17.80;59.90;;;;;;4974522;28;20026;-67
2021/01/05 10:12:53;;;;;;;342.08;195.07;;;17.80;60.40;;;;;;4987412;28;20054;-69
2021/01/05 10:15:21;;;;;;;307.52;175.63;;;17.80;60.00;;;;;;4984463;28;20447;-68
2021/01/05 10:17:47;;;;;;;280.42;155.43;;;17.80;59.90;;;;;;4976706;28;20038;-68
2021/01/05 10:20:16;;;;;;;254.95;145.52;;;17.80;59.80;;;;;;4981043;28;20097;-68
2021/01/05 10:22:41;;;;;;;236.75;132.35;;;17.80;59.70;;;;;;4988299;28;20058;-68
2021/01/05 10:25:09;;;;;;;218.55;127.75;;;17.70;59.50;;;;;;4985584;28;20057;-68
2021/01/05 10:27:35;;;;;;;188.25;117.13;;;17.80;59.30;;;;;;4988461;28;20512;-69
2021/01/05 10:30:00;;;;;;;193.25;113.78;;;17.70;59.20;;;;;;4984809;28;20030;-69
2021/01/05 10:32:26;;;;;;;179.93;106.50;;;17.70;59.10;;;;;;4981935;28;20090;-68
2021/01/05 10:34:51;;;;;;;168.20;101.72;;;17.80;59.10;;;;;;4986693;28;20034;-69
2021/01/05 10:37:17;;;;;;;160.30;97.18;;;17.70;58.90;;;;;;4988602;28;20026;-68
2021/01/05 10:39:44;;;;;;;164.45;91.28;;;17.70;58.90;;;;;;4984019;28;20026;-69
2021/01/05 10:42:09;;;;;;;144.98;89.20;;;17.70;59.00;;;;;;4989349;28;20044;-68
2021/01/05 10:44:35;;;;;;;137.73;84.25;;;17.70;58.90;;;;;;4982545;28;20109;-68
2021/01/05 10:47:03;;;;;;;134.15;81.45;;;17.70;58.80;;;;;;4968498;28;20039;-68
2021/01/05 10:49:29;;;;;;;126.90;76.10;;;17.70;58.70;;;;;;4966830;28;20030;-69
2021/01/05 10:51:57;;;;;;;117.20;72.90;;;17.70;58.60;;;;;;4978747;28;20030;-68
2021/01/05 10:54:26;;;;;;;117.97;72.70;;;17.70;58.50;;;;;;4977412;28;20038;-68
2021/01/05 10:57:00;;;;;;;112.15;69.68;;;17.70;58.50;;;;;;4976398;28;20050;-69
2021/01/05 10:59:27;;;;;;;103.47;63.45;;;17.70;58.50;;;;;;4990865;28;20018;-68
2021/01/05 11:01:55;;;;;;;101.47;61.45;;;17.60;58.50;;;;;;4981726;28;20088;-67
2021/01/05 11:04:22;;;;;;;94.18;57.58;;;17.60;58.40;;;;;;5001133;28;20117;-68
2021/01/05 11:07:00;;;;;;;90.82;56.88;;;17.60;58.50;;;;;;4984449;28;20117;-68
2021/01/05 11:09:26;;;;;;;87.95;55.20;;;17.60;58.40;;;;;;4984247;28;20026;-68
2021/01/05 11:12:00;;;;;;;91.47;54.90;;;17.50;58.30;;;;;;4988598;28;20474;-69
2021/01/05 11:14:25;;;;;;;88.85;51.75;;;17.60;58.50;;;;;;5003079;28;20697;-68
2021/01/05 11:16:52;;;;;;;78.40;49.08;;;17.50;58.30;;;;;;5005175;28;20026;-67
2021/01/05 11:19:18;;;;;;;77.05;47.55;;;17.50;58.40;;;;;;4993471;28;20026;-69
2021/01/05 11:21:55;;;;;;;75.40;45.22;;;17.50;58.60;;;;;;4976197;28;20676;-67
2021/01/05 11:24:22;;;;;;;68.68;43.72;;;17.40;58.40;;;;;;4997789;28;20033;-67
2021/01/05 11:26:49;;;;;;;65.72;41.03;;;17.40;58.30;;;;;;5002248;28;20328;-69
2021/01/05 11:29:15;;;;;;;69.47;40.35;;;17.40;58.50;;;;;;4986339;28;20034;-68
2021/01/05 11:31:41;;;;;;;69.85;39.40;;;17.40;58.50;;;;;;4971341;28;20042;-67
2021/01/05 11:34:06;;;;;;;55.17;36.20;;;17.30;58.50;;;;;;4970724;28;20027;-67
2021/01/05 11:36:32;;;;;;;56.90;37.17;;;17.30;58.50;;;;;;4975885;28;20033;-69
2021/01/05 11:38:58;;;;;;;55.83;34.63;;;17.30;58.60;;;;;;4985743;28;20022;-66
2021/01/05 11:41:25;;;;;;;50.67;33.58;;;17.30;58.70;;;;;;4994988;28;20371;-68
2021/01/05 11:43:51;;;;;;;52.10;33.08;;;17.30;58.50;;;;;;5006549;28;20040;-68
2021/01/05 11:46:17;;;;;;;47.38;31.35;;;17.30;58.50;;;;;;5006298;28;21010;-68
2021/01/05 11:48:42;;;;;;;46.58;30.48;;;17.20;58.40;;;;;;5006203;28;20044;-68
2021/01/05 11:51:08;;;;;;;47.15;30.65;;;17.30;58.30;;;;;;5004861;28;20033;-67
2021/01/05 11:53:33;;;;;;;48.17;28.55;;;17.20;58.40;;;;;;4987796;28;20038;-66
2021/01/05 11:55:59;;;;;;;41.10;25.40;;;17.20;58.50;;;;;;4977899;28;20049;-68
2021/01/05 11:58:24;;;;;;;42.28;26.25;;;17.20;58.40;;;;;;5002848;28;20176;-68
2021/01/05 12:00:50;;;;;;;39.60;24.58;;;17.20;58.20;;;;;;5001925;28;20054;-67
2021/01/05 12:03:15;;;;;;;41.22;24.50;;;17.10;58.50;;;;;;4973908;28;20803;-69
2021/01/05 12:05:41;;;;;;;36.13;22.90;;;17.10;58.80;;;;;;4983375;28;20030;-66
2021/01/05 12:08:06;;;;;;;42.95;22.40;;;17.10;58.80;;;;;;4984874;28;20395;-68
2021/01/05 12:10:32;;;;;;;36.67;22.17;;;16.90;58.60;;;;;;4986740;28;20563;-68
2021/01/05 12:12:57;;;;;;;34.25;21.52;;;17.00;58.80;;;;;;4976686;28;20034;-68
2021/01/05 12:15:23;;;;;;;58.72;37.40;;;17.00;58.60;;;;;;4984715;28;20709;-68
2021/01/05 12:17:48;;;;;;;42.83;26.17;;;17.00;59.10;;;;;;4982543;28;20034;-67
2021/01/05 12:20:14;;;;;;;36.80;24.90;;;17.00;58.90;;;;;;4997350;28;20499;-69
2021/01/05 12:22:39;;;;;;;35.00;23.25;;;17.00;58.70;;;;;;5005068;28;20117;-66
2021/01/05 12:25:05;;;;;;;34.30;20.70;;;17.00;58.50;;;;;;4983240;28;20814;-67
2021/01/05 12:27:31;;;;;;;33.75;20.15;;;17.10;58.50;;;;;;4973142;28;20572;-67
2021/01/05 12:29:56;;;;;;;32.33;19.83;;;17.10;58.10;;;;;;4983398;28;20109;-67
2021/01/05 12:32:22;;;;;;;30.00;19.58;;;17.10;58.10;;;;;;4984264;28;20030;-67
2021/01/05 12:34:50;;;;;;;32.13;18.55;;;17.20;57.90;;;;;;4988582;28;20848;-68
2021/01/05 12:37:20;;;;;;;29.83;18.75;;;17.20;57.80;;;;;;4996457;28;20483;-68
2021/01/05 12:39:46;;;;;;;30.05;17.05;;;17.20;57.80;;;;;;4986135;28;20042;-69
2021/01/05 12:42:14;;;;;;;27.65;16.65;;;17.20;57.70;;;;;;5004519;28;20424;-68
2021/01/05 12:44:40;;;;;;;25.10;16.08;;;17.20;57.70;;;;;;4998344;28;20035;-68
2021/01/05 12:47:06;;;;;;;25.58;15.43;;;17.20;57.60;;;;;;4983514;28;20026;-67
2021/01/05 12:49:32;;;;;;;26.35;15.90;;;17.20;57.60;;;;;;4983731;28;20038;-67
2021/01/05 12:52:08;;;;;;;27.13;15.10;;;17.10;57.70;;;;;;4983677;28;20053;-69